createdAt,value
2022-08-03T05:25:33.129Z,99.90
2022-08-03T05:30:33.544Z,99.90
2022-08-03T05:35:56.811Z,99.90
2022-08-03T05:40:46.854Z,99.90
2022-08-03T05:57:44.073Z,99.90
2022-08-03T06:02:40.292Z,99.90
2022-08-03T06:19:36.873Z,99.90
2022-08-03T06:24:30.518Z,99.90
2022-08-03T06:29:24.128Z,99.90
2022-08-03T06:34:34.261Z,99.90
2022-08-03T06:39:30.841Z,99.90
2022-08-03T06:44:24.372Z,99.90
2022-08-03T06:58:42.765Z,99.90
2022-08-03T07:03:36.802Z,99.90
2022-08-03T07:08:48.504Z,99.90
2022-08-03T07:13:45.457Z,99.90
2022-08-03T07:18:40.055Z,99.90
2022-08-03T07:23:33.593Z,99.90
2022-08-03T07:39:57.690Z,99.90
2022-08-03T07:44:51.630Z,99.90
2022-08-03T07:49:45.619Z,99.90
2022-08-03T07:54:39.473Z,99.90
2022-08-03T08:10:14.968Z,99.90
2022-08-03T08:15:10.570Z,99.90
2022-08-03T08:20:04.635Z,99.90
2022-08-03T08:25:00.162Z,99.90
2022-08-03T08:40:06.957Z,99.90
2022-08-03T08:45:01.923Z,99.90
2022-08-03T08:50:09.334Z,99.90
2022-08-03T08:55:07.395Z,99.90
2022-08-03T09:00:02.133Z,99.90
2022-08-03T09:04:56.654Z,99.90
2022-08-03T09:10:10.162Z,99.90
2022-08-03T09:15:28.333Z,99.90
2022-08-03T09:20:23.924Z,99.90
2022-08-03T09:25:25.190Z,99.10
2022-08-03T09:30:33.837Z,97.10
2022-08-03T09:35:53.122Z,96.50
2022-08-03T09:40:45.420Z,95.70
2022-08-03T09:45:40.345Z,96.60
2022-08-03T09:50:57.098Z,95.50
2022-08-03T09:56:30.892Z,96.00
2022-08-03T10:01:24.036Z,95.50
2022-08-03T10:06:22.519Z,95.50
2022-08-03T10:11:31.806Z,94.40
2022-08-03T10:16:25.937Z,92.70
2022-08-03T10:21:21.771Z,93.20
2022-08-03T10:26:20.609Z,92.90
2022-08-03T10:31:15.358Z,91.10
2022-08-03T10:36:11.051Z,90.40
2022-08-03T10:41:09.481Z,89.40
2022-08-03T10:46:04.618Z,88.00
2022-08-03T10:50:58.420Z,81.80
2022-08-03T10:56:09.489Z,84.20
2022-08-03T11:01:06.197Z,84.70
2022-08-03T11:06:19.339Z,84.30
2022-08-03T11:11:28.779Z,82.20
2022-08-03T11:16:25.103Z,77.80
2022-08-03T11:21:18.965Z,75.80
2022-08-03T11:26:14.600Z,74.40
2022-08-03T11:31:51.605Z,72.00
2022-08-03T11:37:27.498Z,67.50
2022-08-03T11:42:41.910Z,67.60
2022-08-03T11:47:50.690Z,68.80
2022-08-03T11:52:44.921Z,65.30
2022-08-03T11:59:13.150Z,61.90
2022-08-03T12:02:59.405Z,61.40
2022-08-03T12:08:03.239Z,64.20
2022-08-03T12:12:58.921Z,60.20
2022-08-03T12:17:57.398Z,59.70
2022-08-03T12:22:53.360Z,59.50
2022-08-03T12:27:47.303Z,60.30
2022-08-03T12:32:41.043Z,59.00
2022-08-03T12:37:35.320Z,58.60
2022-08-03T12:42:34.895Z,60.30
2022-08-03T12:47:28.689Z,57.90
2022-08-03T12:52:24.091Z,58.00
2022-08-03T12:57:18.143Z,56.20
2022-08-03T13:02:19.299Z,54.30
2022-08-03T13:07:18.383Z,57.20
2022-08-03T13:12:14.769Z,58.00
2022-08-03T13:17:08.836Z,57.10
2022-08-03T13:22:12.456Z,56.60
2022-08-03T13:27:22.000Z,57.20
2022-08-03T13:32:21.999Z,56.80
2022-08-03T13:37:17.702Z,55.60
2022-08-03T13:42:11.500Z,56.00
2022-08-03T13:47:05.696Z,56.20
2022-08-03T13:52:01.492Z,56.40
2022-08-03T13:57:00.579Z,56.90
2022-08-03T14:02:10.184Z,55.60
2022-08-03T14:07:04.231Z,55.30
2022-08-03T14:12:05.300Z,55.30
2022-08-03T14:17:02.101Z,55.00
2022-08-03T14:22:06.393Z,54.20
2022-08-03T14:27:08.620Z,52.90
2022-08-03T14:32:11.694Z,52.70
2022-08-03T14:37:06.668Z,53.80
2022-08-03T14:42:01.678Z,53.30
2022-08-03T14:46:55.603Z,53.20
2022-08-03T14:51:53.783Z,53.50
2022-08-03T14:56:47.816Z,52.70
2022-08-03T15:02:06.042Z,53.90
2022-08-03T15:06:56.368Z,53.50
2022-08-03T15:11:50.267Z,53.20
2022-08-03T15:16:47.738Z,53.20
2022-08-03T15:21:47.015Z,53.60
2022-08-03T15:26:41.871Z,53.10
2022-08-03T15:31:35.628Z,53.80
2022-08-03T15:36:30.579Z,53.30
2022-08-03T15:41:24.096Z,52.80
2022-08-03T15:46:33.549Z,53.30
2022-08-03T15:51:27.283Z,53.10
2022-08-03T15:56:22.288Z,54.20
2022-08-03T16:01:19.615Z,54.20
2022-08-03T16:06:13.835Z,53.60
2022-08-03T16:11:07.546Z,54.00
2022-08-03T16:16:04.079Z,55.40
2022-08-03T16:20:57.586Z,55.30
2022-08-03T16:25:53.051Z,54.70
2022-08-03T16:30:48.363Z,55.30
2022-08-03T16:35:43.804Z,55.50
2022-08-03T16:40:37.389Z,55.10
2022-08-03T16:45:31.118Z,55.30
2022-08-03T16:50:25.376Z,55.60
2022-08-03T16:55:49.123Z,56.00
2022-08-03T17:00:41.833Z,56.10
2022-08-03T17:05:43.875Z,56.50
2022-08-03T17:10:45.852Z,56.40
2022-08-03T17:16:00.678Z,57.40
2022-08-03T17:20:58.457Z,58.20
2022-08-03T17:26:01.994Z,59.60
2022-08-03T17:31:23.273Z,61.40
2022-08-03T17:36:36.992Z,62.60
2022-08-03T17:41:50.090Z,64.10
2022-08-03T17:46:44.539Z,66.00
2022-08-03T17:51:52.896Z,67.10
2022-08-03T17:56:54.530Z,68.50
2022-08-03T18:02:29.581Z,70.00
2022-08-03T18:07:41.331Z,71.40
2022-08-03T18:12:46.569Z,72.60
2022-08-03T18:17:55.094Z,75.70
2022-08-03T18:22:52.268Z,78.80
2022-08-03T18:27:49.931Z,81.00
2022-08-03T18:38:01.585Z,83.20
2022-08-03T18:42:58.001Z,83.50
2022-08-03T18:48:12.392Z,84.30
2022-08-03T18:53:19.776Z,85.80
2022-08-03T18:58:21.270Z,87.50
2022-08-03T19:03:22.110Z,90.30
2022-08-03T19:08:18.796Z,90.90
2022-08-03T19:13:30.975Z,91.50
2022-08-03T19:18:30.971Z,91.70
2022-08-03T19:23:25.578Z,92.10
2022-08-03T19:28:19.832Z,92.50
2022-08-03T19:33:29.897Z,92.70
2022-08-03T19:38:28.740Z,93.00
2022-08-03T19:48:52.027Z,93.50
2022-08-03T19:53:48.310Z,94.20
2022-08-03T19:58:44.196Z,94.70
2022-08-03T20:03:43.315Z,95.00
2022-08-03T20:08:44.030Z,95.30
2022-08-03T20:13:39.294Z,95.60
2022-08-03T20:18:38.916Z,95.60
2022-08-03T20:23:37.261Z,96.00
2022-08-03T20:28:34.473Z,96.40
2022-08-03T21:12:58.266Z,82.70
2022-08-03T21:13:02.803Z,93.30
2022-08-03T21:13:07.168Z,96.50
